sensor_id;sensor_type;location;lat;lon;timestamp;P1;durP1;ratioP1;P2;durP2;ratioP2
3175;SDS011;1599;51.564;6.990;2023-06-10T04:15:03;13.27;;;10.50;;
3175;SDS011;1599;51.564;6.990;2023-06-10T04:17:29;11.40;;;9.50;;
3175;SDS011;1599;51.564;6.990;2023-06-10T04:19:55;12.30;;;9.37;;
3175;SDS011;1599;51.564;6.990;2023-06-10T04:22:22;11.73;;;9.90;;
3175;SDS011;1599;51.564;6.990;2023-06-10T04:29:59;11.53;;;9.00;;
3175;SDS011;1599;51.564;6.990;2023-06-10T04:32:24;11.43;;;9.60;;
3175;SDS011;1599;51.564;6.990;2023-06-10T05:00:45;13.60;;;8.73;;
3175;SDS011;1599;51.564;6.990;2023-06-10T05:03:11;11.47;;;9.00;;
3175;SDS011;1599;51.564;6.990;2023-06-10T05:05:37;12.00;;;8.10;;
3175;SDS011;1599;51.564;6.990;2023-06-10T05:08:03;12.10;;;7.57;;
3175;SDS011;1599;51.564;6.990;2023-06-10T05:10:28;11.50;;;8.00;;
3175;SDS011;1599;51.564;6.990;2023-06-10T05:12:56;9.20;;;7.97;;
3175;SDS011;1599;51.564;6.990;2023-06-10T05:41:55;13.13;;;8.37;;
3175;SDS011;1599;51.564;6.990;2023-06-10T07:17:39;10.70;;;7.30;;
3175;SDS011;1599;51.564;6.990;2023-06-10T07:20:09;8.20;;;7.00;;
3175;SDS011;1599;51.564;6.990;2023-06-10T07:22:57;12.03;;;7.40;;
3175;SDS011;1599;51.564;6.990;2023-06-10T07:25:45;7.80;;;7.00;;
3175;SDS011;1599;51.564;6.990;2023-06-10T07:28:12;7.60;;;6.73;;
3175;SDS011;1599;51.564;6.990;2023-06-10T07:30:37;8.17;;;6.60;;
3175;SDS011;1599;51.564;6.990;2023-06-10T07:33:03;10.60;;;7.80;;
3175;SDS011;1599;51.564;6.990;2023-06-10T07:35:35;9.83;;;7.03;;
3175;SDS011;1599;51.564;6.990;2023-06-10T07:41:55;8.53;;;7.10;;
3175;SDS011;1599;51.564;6.990;2023-06-10T07:45:20;8.23;;;6.90;;
3175;SDS011;1599;51.564;6.990;2023-06-10T07:47:55;8.40;;;6.93;;
3175;SDS011;1599;51.564;6.990;2023-06-10T07:50:21;8.67;;;7.77;;
3175;SDS011;1599;51.564;6.990;2023-06-10T09:39:43;10.10;;;7.90;;
3175;SDS011;1599;51.564;6.990;2023-06-10T09:42:16;13.03;;;8.60;;
3175;SDS011;1599;51.564;6.990;2023-06-10T09:44:48;8.43;;;7.47;;
3175;SDS011;1599;51.564;6.990;2023-06-10T09:47:19;10.03;;;7.90;;
3175;SDS011;1599;51.564;6.990;2023-06-10T09:49:48;9.13;;;7.80;;
3175;SDS011;1599;51.564;6.990;2023-06-10T09:52:21;11.90;;;7.80;;
3175;SDS011;1599;51.564;6.990;2023-06-10T09:54:55;9.30;;;8.33;;
3175;SDS011;1599;51.564;6.990;2023-06-10T09:57:30;10.17;;;8.20;;
3175;SDS011;1599;51.564;6.990;2023-06-10T09:59:57;9.33;;;7.90;;
3175;SDS011;1599;51.564;6.990;2023-06-10T10:02:23;8.93;;;8.03;;
3175;SDS011;1599;51.564;6.990;2023-06-10T10:04:48;9.43;;;8.33;;
3175;SDS011;1599;51.564;6.990;2023-06-10T10:07:14;12.40;;;9.80;;
3175;SDS011;1599;51.564;6.990;2023-06-10T10:09:40;10.17;;;8.43;;
3175;SDS011;1599;51.564;6.990;2023-06-10T10:12:10;9.20;;;7.57;;
3175;SDS011;1599;51.564;6.990;2023-06-10T10:14:37;8.60;;;7.67;;
3175;SDS011;1599;51.564;6.990;2023-06-10T10:17:07;9.30;;;8.30;;
3175;SDS011;1599;51.564;6.990;2023-06-10T10:19:36;10.00;;;8.00;;
3175;SDS011;1599;51.564;6.990;2023-06-10T10:22:07;9.27;;;8.37;;
3175;SDS011;1599;51.564;6.990;2023-06-10T10:24:36;10.10;;;8.23;;
3175;SDS011;1599;51.564;6.990;2023-06-10T10:27:13;9.37;;;7.97;;
3175;SDS011;1599;51.564;6.990;2023-06-10T10:29:47;9.50;;;8.23;;
3175;SDS011;1599;51.564;6.990;2023-06-10T10:32:13;9.07;;;8.13;;
3175;SDS011;1599;51.564;6.990;2023-06-10T10:34:49;19.30;;;8.30;;
3175;SDS011;1599;51.564;6.990;2023-06-10T10:37:31;14.07;;;7.50;;
3175;SDS011;1599;51.564;6.990;2023-06-10T10:39:57;9.80;;;7.90;;
3175;SDS011;1599;51.564;6.990;2023-06-10T10:42:23;9.77;;;8.80;;
3175;SDS011;1599;51.564;6.990;2023-06-10T10:44:50;9.53;;;8.53;;
3175;SDS011;1599;51.564;6.990;2023-06-10T10:47:16;8.83;;;7.90;;
3175;SDS011;1599;51.564;6.990;2023-06-10T10:49:47;9.57;;;8.10;;
3175;SDS011;1599;51.564;6.990;2023-06-10T10:52:15;9.27;;;8.40;;
3175;SDS011;1599;51.564;6.990;2023-06-10T10:54:45;9.73;;;7.83;;
3175;SDS011;1599;51.564;6.990;2023-06-10T10:57:16;9.73;;;8.73;;
3175;SDS011;1599;51.564;6.990;2023-06-10T11:05:06;14.00;;;9.20;;
3175;SDS011;1599;51.564;6.990;2023-06-10T11:07:33;12.10;;;8.57;;
3175;SDS011;1599;51.564;6.990;2023-06-10T11:10:05;9.80;;;8.80;;
3175;SDS011;1599;51.564;6.990;2023-06-10T11:15:10;10.63;;;9.47;;
3175;SDS011;1599;51.564;6.990;2023-06-10T11:17:36;9.37;;;8.47;;
3175;SDS011;1599;51.564;6.990;2023-06-10T11:20:02;12.43;;;9.60;;
3175;SDS011;1599;51.564;6.990;2023-06-10T11:22:27;9.57;;;8.67;;
3175;SDS011;1599;51.564;6.990;2023-06-10T11:24:53;10.70;;;8.03;;
3175;SDS011;1599;51.564;6.990;2023-06-10T11:27:19;9.00;;;8.20;;
3175;SDS011;1599;51.564;6.990;2023-06-10T11:32:31;9.50;;;8.37;;
3175;SDS011;1599;51.564;6.990;2023-06-10T11:34:59;9.97;;;7.70;;
3175;SDS011;1599;51.564;6.990;2023-06-10T11:37:28;10.23;;;9.23;;
3175;SDS011;1599;51.564;6.990;2023-06-10T11:39:54;10.00;;;9.10;;
3175;SDS011;1599;51.564;6.990;2023-06-10T11:42:21;11.50;;;8.67;;
3175;SDS011;1599;51.564;6.990;2023-06-10T11:44:48;12.23;;;9.03;;
3175;SDS011;1599;51.564;6.990;2023-06-10T11:47:15;10.90;;;8.47;;
3175;SDS011;1599;51.564;6.990;2023-06-10T11:49:40;11.30;;;8.93;;
3175;SDS011;1599;51.564;6.990;2023-06-10T11:52:06;9.07;;;7.90;;
3175;SDS011;1599;51.564;6.990;2023-06-10T11:54:31;11.73;;;9.00;;
3175;SDS011;1599;51.564;6.990;2023-06-10T11:56:57;13.27;;;9.43;;
3175;SDS011;1599;51.564;6.990;2023-06-10T11:59:26;9.97;;;9.03;;
3175;SDS011;1599;51.564;6.990;2023-06-10T12:01:52;9.77;;;8.87;;
3175;SDS011;1599;51.564;6.990;2023-06-10T12:04:18;9.57;;;8.77;;
3175;SDS011;1599;51.564;6.990;2023-06-10T12:09:18;10.03;;;9.03;;
3175;SDS011;1599;51.564;6.990;2023-06-10T12:11:45;11.20;;;8.63;;
3175;SDS011;1599;51.564;6.990;2023-06-10T12:14:11;10.13;;;9.23;;
3175;SDS011;1599;51.564;6.990;2023-06-10T12:16:36;10.77;;;9.77;;
3175;SDS011;1599;51.564;6.990;2023-06-10T12:19:02;9.80;;;8.80;;
3175;SDS011;1599;51.564;6.990;2023-06-10T12:21:29;12.23;;;9.17;;
3175;SDS011;1599;51.564;6.990;2023-06-10T12:26:34;10.13;;;8.93;;
3175;SDS011;1599;51.564;6.990;2023-06-10T12:29:16;9.47;;;8.10;;
3175;SDS011;1599;51.564;6.990;2023-06-10T12:32:03;11.57;;;9.20;;
3175;SDS011;1599;51.564;6.990;2023-06-10T12:34:36;9.83;;;8.00;;
3175;SDS011;1599;51.564;6.990;2023-06-10T12:37:04;12.60;;;8.43;;
3175;SDS011;1599;51.564;6.990;2023-06-10T12:39:32;10.43;;;9.17;;
3175;SDS011;1599;51.564;6.990;2023-06-10T12:41:59;10.33;;;9.13;;
3175;SDS011;1599;51.564;6.990;2023-06-10T12:44:32;12.23;;;8.87;;
3175;SDS011;1599;51.564;6.990;2023-06-10T12:46:58;10.43;;;9.33;;
3175;SDS011;1599;51.564;6.990;2023-06-10T12:49:24;10.03;;;9.03;;
3175;SDS011;1599;51.564;6.990;2023-06-10T12:51:51;11.77;;;9.03;;
3175;SDS011;1599;51.564;6.990;2023-06-10T12:54:16;10.27;;;9.23;;
3175;SDS011;1599;51.564;6.990;2023-06-10T12:56:42;10.83;;;9.50;;
3175;SDS011;1599;51.564;6.990;2023-06-10T12:59:07;12.80;;;9.57;;
3175;SDS011;1599;51.564;6.990;2023-06-10T13:01:33;9.90;;;8.90;;
3175;SDS011;1599;51.564;6.990;2023-06-10T13:03:58;11.13;;;9.60;;
3175;SDS011;1599;51.564;6.990;2023-06-10T13:06:24;10.40;;;9.13;;
3175;SDS011;1599;51.564;6.990;2023-06-10T13:08:50;10.90;;;9.80;;
3175;SDS011;1599;51.564;6.990;2023-06-10T13:11:16;13.33;;;9.20;;
3175;SDS011;1599;51.564;6.990;2023-06-10T13:13:42;10.67;;;9.67;;
3175;SDS011;1599;51.564;6.990;2023-06-10T13:16:08;10.63;;;9.63;;
3175;SDS011;1599;51.564;6.990;2023-06-10T13:18:33;10.07;;;9.07;;
3175;SDS011;1599;51.564;6.990;2023-06-10T13:21:05;13.00;;;9.57;;
3175;SDS011;1599;51.564;6.990;2023-06-10T13:23:31;12.20;;;9.20;;
3175;SDS011;1599;51.564;6.990;2023-06-10T13:25:57;9.57;;;8.67;;
3175;SDS011;1599;51.564;6.990;2023-06-10T13:28:22;11.30;;;10.10;;
3175;SDS011;1599;51.564;6.990;2023-06-10T13:30:48;11.07;;;9.70;;
3175;SDS011;1599;51.564;6.990;2023-06-10T13:33:13;10.87;;;9.80;;
3175;SDS011;1599;51.564;6.990;2023-06-10T13:35:39;10.27;;;9.23;;
3175;SDS011;1599;51.564;6.990;2023-06-10T13:38:06;10.30;;;9.40;;
3175;SDS011;1599;51.564;6.990;2023-06-10T13:40:32;10.10;;;8.37;;
3175;SDS011;1599;51.564;6.990;2023-06-10T13:42:57;10.43;;;9.43;;
3175;SDS011;1599;51.564;6.990;2023-06-10T13:45:23;9.97;;;9.03;;
3175;SDS011;1599;51.564;6.990;2023-06-10T13:47:49;10.67;;;9.63;;
3175;SDS011;1599;51.564;6.990;2023-06-10T13:50:17;10.47;;;9.47;;
3175;SDS011;1599;51.564;6.990;2023-06-10T13:52:42;11.77;;;10.47;;
3175;SDS011;1599;51.564;6.990;2023-06-10T13:55:08;9.90;;;8.90;;
3175;SDS011;1599;51.564;6.990;2023-06-10T13:57:34;9.23;;;8.23;;
3175;SDS011;1599;51.564;6.990;2023-06-10T14:00:00;10.33;;;9.37;;
3175;SDS011;1599;51.564;6.990;2023-06-10T14:02:25;9.20;;;8.40;;
3175;SDS011;1599;51.564;6.990;2023-06-10T14:04:51;9.50;;;8.70;;
3175;SDS011;1599;51.564;6.990;2023-06-10T14:07:16;10.37;;;9.30;;
3175;SDS011;1599;51.564;6.990;2023-06-10T14:09:42;11.20;;;8.77;;
3175;SDS011;1599;51.564;6.990;2023-06-10T14:12:08;10.27;;;9.27;;
3175;SDS011;1599;51.564;6.990;2023-06-10T14:14:34;9.70;;;8.23;;
3175;SDS011;1599;51.564;6.990;2023-06-10T14:17:00;12.60;;;9.70;;
3175;SDS011;1599;51.564;6.990;2023-06-10T14:19:25;9.60;;;8.80;;
3175;SDS011;1599;51.564;6.990;2023-06-10T14:21:51;9.80;;;8.80;;
3175;SDS011;1599;51.564;6.990;2023-06-10T14:24:18;10.13;;;9.13;;
3175;SDS011;1599;51.564;6.990;2023-06-10T14:26:44;12.87;;;10.00;;
3175;SDS011;1599;51.564;6.990;2023-06-10T14:29:10;12.10;;;10.83;;
3175;SDS011;1599;51.564;6.990;2023-06-10T14:31:35;10.93;;;9.83;;
3175;SDS011;1599;51.564;6.990;2023-06-10T14:34:01;11.27;;;10.17;;
3175;SDS011;1599;51.564;6.990;2023-06-10T14:36:26;11.60;;;8.87;;
3175;SDS011;1599;51.564;6.990;2023-06-10T14:38:52;9.40;;;8.50;;
3175;SDS011;1599;51.564;6.990;2023-06-10T14:41:18;10.53;;;9.53;;
3175;SDS011;1599;51.564;6.990;2023-06-10T14:43:44;9.30;;;8.47;;
3175;SDS011;1599;51.564;6.990;2023-06-10T14:46:10;11.13;;;9.83;;
3175;SDS011;1599;51.564;6.990;2023-06-10T14:48:35;10.20;;;9.30;;
3175;SDS011;1599;51.564;6.990;2023-06-10T14:51:01;9.10;;;8.20;;
3175;SDS011;1599;51.564;6.990;2023-06-10T14:53:27;9.57;;;8.70;;
3175;SDS011;1599;51.564;6.990;2023-06-10T14:55:52;9.57;;;8.50;;
3175;SDS011;1599;51.564;6.990;2023-06-10T14:58:18;9.23;;;8.33;;
3175;SDS011;1599;51.564;6.990;2023-06-10T15:00:43;9.80;;;8.90;;
3175;SDS011;1599;51.564;6.990;2023-06-10T15:03:09;9.67;;;8.80;;
3175;SDS011;1599;51.564;6.990;2023-06-10T15:05:35;9.87;;;8.83;;
3175;SDS011;1599;51.564;6.990;2023-06-10T15:08:02;11.53;;;10.33;;
3175;SDS011;1599;51.564;6.990;2023-06-10T15:10:28;10.80;;;9.70;;
3175;SDS011;1599;51.564;6.990;2023-06-10T15:12:54;9.47;;;8.57;;
3175;SDS011;1599;51.564;6.990;2023-06-10T15:15:24;9.67;;;8.70;;
3175;SDS011;1599;51.564;6.990;2023-06-10T15:17:50;10.20;;;9.20;;
3175;SDS011;1599;51.564;6.990;2023-06-10T15:20:17;9.77;;;8.73;;
3175;SDS011;1599;51.564;6.990;2023-06-10T15:22:43;10.50;;;9.40;;
3175;SDS011;1599;51.564;6.990;2023-06-10T15:25:08;10.67;;;9.63;;
3175;SDS011;1599;51.564;6.990;2023-06-10T15:27:34;9.07;;;8.17;;
3175;SDS011;1599;51.564;6.990;2023-06-10T15:29:59;11.47;;;9.53;;
3175;SDS011;1599;51.564;6.990;2023-06-10T15:32:25;10.57;;;9.13;;
3175;SDS011;1599;51.564;6.990;2023-06-10T15:34:50;9.83;;;8.80;;
3175;SDS011;1599;51.564;6.990;2023-06-10T15:37:18;8.97;;;8.17;;
3175;SDS011;1599;51.564;6.990;2023-06-10T15:39:44;12.83;;;9.30;;
3175;SDS011;1599;51.564;6.990;2023-06-10T15:42:09;10.00;;;8.93;;
3175;SDS011;1599;51.564;6.990;2023-06-10T15:44:35;10.30;;;8.73;;
3175;SDS011;1599;51.564;6.990;2023-06-10T15:47:01;13.30;;;8.60;;
3175;SDS011;1599;51.564;6.990;2023-06-10T15:49:26;9.33;;;8.43;;
3175;SDS011;1599;51.564;6.990;2023-06-10T15:51:52;10.50;;;9.30;;
3175;SDS011;1599;51.564;6.990;2023-06-10T15:54:17;9.53;;;8.70;;
3175;SDS011;1599;51.564;6.990;2023-06-10T15:56:43;9.83;;;8.87;;
3175;SDS011;1599;51.564;6.990;2023-06-10T15:59:09;11.93;;;9.00;;
3175;SDS011;1599;51.564;6.990;2023-06-10T16:01:36;11.30;;;10.20;;
3175;SDS011;1599;51.564;6.990;2023-06-10T16:04:01;10.30;;;9.30;;
3175;SDS011;1599;51.564;6.990;2023-06-10T16:06:27;16.80;;;9.20;;
3175;SDS011;1599;51.564;6.990;2023-06-10T16:08:53;10.87;;;9.87;;
3175;SDS011;1599;51.564;6.990;2023-06-10T16:11:18;15.40;;;11.67;;
3175;SDS011;1599;51.564;6.990;2023-06-10T16:13:44;14.07;;;10.50;;
3175;SDS011;1599;51.564;6.990;2023-06-10T16:16:10;10.17;;;9.20;;
3175;SDS011;1599;51.564;6.990;2023-06-10T16:18:35;10.73;;;9.13;;
3175;SDS011;1599;51.564;6.990;2023-06-10T16:21:01;9.90;;;9.00;;
3175;SDS011;1599;51.564;6.990;2023-06-10T16:23:26;10.30;;;9.20;;
3175;SDS011;1599;51.564;6.990;2023-06-10T16:25:52;9.73;;;8.83;;
3175;SDS011;1599;51.564;6.990;2023-06-10T16:28:17;10.20;;;9.20;;
3175;SDS011;1599;51.564;6.990;2023-06-10T16:30:43;9.17;;;8.37;;
3175;SDS011;1599;51.564;6.990;2023-06-10T16:33:09;9.97;;;8.93;;
3175;SDS011;1599;51.564;6.990;2023-06-10T16:35:35;10.50;;;9.40;;
3175;SDS011;1599;51.564;6.990;2023-06-10T16:38:01;10.73;;;9.40;;
3175;SDS011;1599;51.564;6.990;2023-06-10T16:40:26;9.70;;;8.80;;
3175;SDS011;1599;51.564;6.990;2023-06-10T16:42:52;10.77;;;9.67;;
3175;SDS011;1599;51.564;6.990;2023-06-10T16:45:17;10.37;;;9.00;;
3175;SDS011;1599;51.564;6.990;2023-06-10T16:47:43;11.00;;;9.43;;
3175;SDS011;1599;51.564;6.990;2023-06-10T16:50:08;10.27;;;9.27;;
3175;SDS011;1599;51.564;6.990;2023-06-10T16:52:34;10.83;;;8.50;;
3175;SDS011;1599;51.564;6.990;2023-06-10T16:55:00;10.10;;;9.10;;
3175;SDS011;1599;51.564;6.990;2023-06-10T16:57:25;10.23;;;8.70;;
3175;SDS011;1599;51.564;6.990;2023-06-10T16:59:51;9.57;;;8.60;;
3175;SDS011;1599;51.564;6.990;2023-06-10T17:02:16;9.50;;;8.53;;
3175;SDS011;1599;51.564;6.990;2023-06-10T17:04:42;9.80;;;8.27;;
3175;SDS011;1599;51.564;6.990;2023-06-10T17:07:07;12.33;;;9.73;;
3175;SDS011;1599;51.564;6.990;2023-06-10T17:09:33;11.37;;;9.10;;
3175;SDS011;1599;51.564;6.990;2023-06-10T17:11:59;9.37;;;8.53;;
3175;SDS011;1599;51.564;6.990;2023-06-10T17:14:25;10.43;;;9.43;;
3175;SDS011;1599;51.564;6.990;2023-06-10T17:16:51;9.83;;;8.93;;
3175;SDS011;1599;51.564;6.990;2023-06-10T17:19:17;10.93;;;9.00;;
3175;SDS011;1599;51.564;6.990;2023-06-10T17:21:43;10.40;;;9.40;;
3175;SDS011;1599;51.564;6.990;2023-06-10T17:24:08;12.63;;;9.60;;
3175;SDS011;1599;51.564;6.990;2023-06-10T17:26:34;9.73;;;8.73;;
3175;SDS011;1599;51.564;6.990;2023-06-10T17:28:59;12.27;;;9.17;;
3175;SDS011;1599;51.564;6.990;2023-06-10T17:31:27;10.20;;;9.20;;
3175;SDS011;1599;51.564;6.990;2023-06-10T17:33:52;13.67;;;9.93;;
3175;SDS011;1599;51.564;6.990;2023-06-10T17:36:18;10.07;;;9.17;;
3175;SDS011;1599;51.564;6.990;2023-06-10T17:38:43;11.63;;;9.40;;
3175;SDS011;1599;51.564;6.990;2023-06-10T17:41:10;9.80;;;8.87;;
3175;SDS011;1599;51.564;6.990;2023-06-10T17:43:35;10.47;;;9.40;;
3175;SDS011;1599;51.564;6.990;2023-06-10T17:46:01;10.73;;;9.83;;
3175;SDS011;1599;51.564;6.990;2023-06-10T17:48:28;10.40;;;9.40;;
3175;SDS011;1599;51.564;6.990;2023-06-10T17:50:53;9.07;;;8.17;;
3175;SDS011;1599;51.564;6.990;2023-06-10T17:53:19;10.43;;;9.30;;
3175;SDS011;1599;51.564;6.990;2023-06-10T17:55:45;10.33;;;9.30;;
3175;SDS011;1599;51.564;6.990;2023-06-10T17:58:11;11.73;;;9.77;;
3175;SDS011;1599;51.564;6.990;2023-06-10T18:00:37;10.17;;;8.97;;
3175;SDS011;1599;51.564;6.990;2023-06-10T18:03:02;10.10;;;9.10;;
3175;SDS011;1599;51.564;6.990;2023-06-10T18:05:28;12.53;;;8.90;;
3175;SDS011;1599;51.564;6.990;2023-06-10T18:07:53;10.80;;;8.70;;
3175;SDS011;1599;51.564;6.990;2023-06-10T18:10:19;11.73;;;9.43;;
3175;SDS011;1599;51.564;6.990;2023-06-10T18:12:45;10.63;;;9.47;;
3175;SDS011;1599;51.564;6.990;2023-06-10T18:15:11;11.40;;;10.13;;
3175;SDS011;1599;51.564;6.990;2023-06-10T18:17:36;9.97;;;8.50;;
3175;SDS011;1599;51.564;6.990;2023-06-10T18:20:03;10.37;;;9.30;;
3175;SDS011;1599;51.564;6.990;2023-06-10T18:22:29;10.00;;;8.40;;
3175;SDS011;1599;51.564;6.990;2023-06-10T18:24:56;9.53;;;8.63;;
3175;SDS011;1599;51.564;6.990;2023-06-10T18:27:22;10.27;;;9.27;;
3175;SDS011;1599;51.564;6.990;2023-06-10T18:29:48;11.20;;;8.97;;
3175;SDS011;1599;51.564;6.990;2023-06-10T18:32:13;11.17;;;10.07;;
3175;SDS011;1599;51.564;6.990;2023-06-10T18:34:39;9.53;;;8.63;;
3175;SDS011;1599;51.564;6.990;2023-06-10T18:37:06;10.20;;;9.20;;
3175;SDS011;1599;51.564;6.990;2023-06-10T18:39:32;10.17;;;9.17;;
3175;SDS011;1599;51.564;6.990;2023-06-10T18:41:59;11.27;;;9.47;;
3175;SDS011;1599;51.564;6.990;2023-06-10T18:44:28;9.83;;;8.90;;
3175;SDS011;1599;51.564;6.990;2023-06-10T18:46:54;10.33;;;9.43;;
3175;SDS011;1599;51.564;6.990;2023-06-10T18:49:20;10.60;;;9.50;;
3175;SDS011;1599;51.564;6.990;2023-06-10T18:51:47;10.20;;;8.80;;
3175;SDS011;1599;51.564;6.990;2023-06-10T18:54:12;11.30;;;9.40;;
3175;SDS011;1599;51.564;6.990;2023-06-10T18:56:38;10.70;;;8.67;;
3175;SDS011;1599;51.564;6.990;2023-06-10T18:59:05;10.00;;;9.10;;
3175;SDS011;1599;51.564;6.990;2023-06-10T19:01:31;10.27;;;9.27;;
3175;SDS011;1599;51.564;6.990;2023-06-10T19:03:57;16.20;;;10.07;;
3175;SDS011;1599;51.564;6.990;2023-06-10T19:06:22;11.73;;;10.33;;
3175;SDS011;1599;51.564;6.990;2023-06-10T19:08:48;10.70;;;9.70;;
3175;SDS011;1599;51.564;6.990;2023-06-10T19:11:13;11.13;;;9.70;;
3175;SDS011;1599;51.564;6.990;2023-06-10T19:13:39;10.03;;;9.00;;
3175;SDS011;1599;51.564;6.990;2023-06-10T19:16:05;11.07;;;9.97;;
3175;SDS011;1599;51.564;6.990;2023-06-10T19:18:32;11.40;;;10.27;;
3175;SDS011;1599;51.564;6.990;2023-06-10T19:20:58;10.57;;;9.67;;
3175;SDS011;1599;51.564;6.990;2023-06-10T19:23:23;11.90;;;10.27;;
3175;SDS011;1599;51.564;6.990;2023-06-10T19:25:49;11.60;;;10.53;;
3175;SDS011;1599;51.564;6.990;2023-06-10T19:28:15;11.20;;;10.10;;
3175;SDS011;1599;51.564;6.990;2023-06-10T19:30:41;10.83;;;9.83;;
3175;SDS011;1599;51.564;6.990;2023-06-10T19:33:07;12.43;;;10.80;;
3175;SDS011;1599;51.564;6.990;2023-06-10T19:35:33;12.60;;;11.30;;
3175;SDS011;1599;51.564;6.990;2023-06-10T19:37:59;11.17;;;10.07;;
3175;SDS011;1599;51.564;6.990;2023-06-10T19:40:24;11.00;;;10.00;;
3175;SDS011;1599;51.564;6.990;2023-06-10T19:42:50;11.67;;;10.33;;
3175;SDS011;1599;51.564;6.990;2023-06-10T19:45:16;12.33;;;11.10;;
3175;SDS011;1599;51.564;6.990;2023-06-10T19:47:42;10.90;;;9.80;;
3175;SDS011;1599;51.564;6.990;2023-06-10T19:50:07;11.63;;;10.23;;
3175;SDS011;1599;51.564;6.990;2023-06-10T19:52:33;11.37;;;10.27;;
3175;SDS011;1599;51.564;6.990;2023-06-10T19:54:59;11.53;;;10.40;;
3175;SDS011;1599;51.564;6.990;2023-06-10T19:57:25;11.70;;;10.60;;
3175;SDS011;1599;51.564;6.990;2023-06-10T19:59:50;12.30;;;10.63;;
